This is the latest recevied weather packets stored in our database for station/object W0AKY-13. If no packets are shown the sender has not sent any weather packets the latest 10 day(s).
| Time | Temp. | Humidity | Pressure | Rain* | Wind** | Luminosity | Snow |
|---|---|---|---|---|---|---|---|
| 1788334842 | 24.44° C | 72% | 1014.1 hPa | 0 mm | - | 0 W/m² | - |
| 1788334538 | 24.44° C | 71% | 1014 hPa | 0 mm | - | 0 W/m² | - |
| 1788334234 | 24.44° C | 70% | 1013.9 hPa | 0 mm | - | 0 W/m² | - |
| 1788333929 | 24.44° C | 72% | 1013.9 hPa | 0 mm | - | 0 W/m² | - |
| 1788319178 | 27.78° C | 62% | 1013.5 hPa | 0 mm | - | 0 W/m² | - |
| 1788318874 | 27.78° C | 62% | 1013.5 hPa | 0 mm | - | 0 W/m² | - |
| 1788318571 | 28.33° C | 61% | 1013.4 hPa | 0 mm | - | 0 W/m² | - |
| 1788318270 | 28.33° C | 61% | 1013.4 hPa | 0 mm | - | 0 W/m² | - |
| 1788317969 | 28.33° C | 61% | 1013.3 hPa | 0 mm | - | 0 W/m² | - |
| 1788317665 | 28.33° C | 62% | 1013.4 hPa | 0 mm | - | 0 W/m² | - |
| 1788317361 | 28.33° C | 62% | 1013.1 hPa | 0 mm | - | 0 W/m² | - |
| 1788317055 | 28.33° C | 62% | 1013.1 hPa | 0 mm | - | 0 W/m² | - |
| 1788316750 | 28.33° C | 62% | 1013.1 hPa | 0 mm | - | 0 W/m² | - |
| 1788316446 | 28.33° C | 63% | 1013 hPa | 0 mm | - | 0 W/m² | - |
| 1788316145 | 28.89° C | 63% | 1012.9 hPa | 0 mm | - | 0 W/m² | - |
| 1788315839 | 28.89° C | 62% | 1013.2 hPa | 0 mm | - | 0 W/m² | - |
| 1788315536 | 28.89° C | 63% | 1012.8 hPa | 0 mm | - | 0 W/m² | - |
| 1788315235 | 28.89° C | 62% | 1012.9 hPa | 0 mm | - | 0 W/m² | - |
| 1788314931 | 28.89° C | 62% | 1012.8 hPa | 0 mm | - | 0 W/m² | - |
| 1788314628 | 28.89° C | 63% | 1012.7 hPa | 0 mm | - | 0 W/m² | - |
| 1788314323 | 28.89° C | 64% | 1012.9 hPa | 0 mm | - | 0 W/m² | - |
| 1788314018 | 28.89° C | 64% | 1012.8 hPa | 0 mm | - | 0 W/m² | - |
| 1788313714 | 29.44° C | 63% | 1012.7 hPa | 0 mm | - | 0 W/m² | - |
| 1788313410 | 29.44° C | 62% | 1012.5 hPa | 0 mm | - | 0 W/m² | - |
| 1788313109 | 30° C | 60% | 1012.4 hPa | 0 mm | - | 0 W/m² | - |
* Rain latest hour (hover to see other rain measurements)
** Current wind speed in m/s (hover to see current wind gust speed)